sensor_id;sensor_type;location;lat;lon;timestamp;P1;durP1;ratioP1;P2;durP2;ratioP2
50695;SDS011;36665;51.786;21.594;2023-11-21T00:08:02;19.90;;;9.40;;
50695;SDS011;36665;51.786;21.594;2023-11-21T00:16:28;15.00;;;8.60;;
50695;SDS011;36665;51.786;21.594;2023-11-21T00:24:54;12.90;;;7.50;;
50695;SDS011;36665;51.786;21.594;2023-11-21T00:33:18;15.10;;;8.00;;
50695;SDS011;36665;51.786;21.594;2023-11-21T00:41:43;12.90;;;6.50;;
50695;SDS011;36665;51.786;21.594;2023-11-21T00:50:11;14.10;;;8.00;;
50695;SDS011;36665;51.786;21.594;2023-11-21T00:58:36;15.90;;;8.40;;
50695;SDS011;36665;51.786;21.594;2023-11-21T01:07:02;17.60;;;7.70;;
50695;SDS011;36665;51.786;21.594;2023-11-21T01:15:30;11.70;;;6.80;;
50695;SDS011;36665;51.786;21.594;2023-11-21T01:23:55;16.60;;;8.90;;
50695;SDS011;36665;51.786;21.594;2023-11-21T01:32:21;17.80;;;8.20;;
50695;SDS011;36665;51.786;21.594;2023-11-21T01:40:46;15.70;;;8.00;;
50695;SDS011;36665;51.786;21.594;2023-11-21T01:49:11;17.00;;;9.40;;
50695;SDS011;36665;51.786;21.594;2023-11-21T01:57:38;24.50;;;12.00;;
50695;SDS011;36665;51.786;21.594;2023-11-21T02:06:04;27.40;;;13.10;;
50695;SDS011;36665;51.786;21.594;2023-11-21T02:14:32;28.40;;;15.00;;
50695;SDS011;36665;51.786;21.594;2023-11-21T02:22:56;31.30;;;13.70;;
50695;SDS011;36665;51.786;21.594;2023-11-21T02:31:24;30.60;;;16.10;;
50695;SDS011;36665;51.786;21.594;2023-11-21T02:39:49;30.80;;;14.40;;
50695;SDS011;36665;51.786;21.594;2023-11-21T02:48:12;33.50;;;15.90;;
50695;SDS011;36665;51.786;21.594;2023-11-21T02:56:35;34.20;;;15.30;;
50695;SDS011;36665;51.786;21.594;2023-11-21T03:05:02;30.80;;;14.10;;
50695;SDS011;36665;51.786;21.594;2023-11-21T03:13:29;26.80;;;13.90;;
50695;SDS011;36665;51.786;21.594;2023-11-21T03:21:55;28.90;;;13.60;;
50695;SDS011;36665;51.786;21.594;2023-11-21T03:30:22;19.20;;;11.10;;
50695;SDS011;36665;51.786;21.594;2023-11-21T03:38:47;29.10;;;15.70;;
50695;SDS011;36665;51.786;21.594;2023-11-21T03:47:16;24.80;;;11.70;;
50695;SDS011;36665;51.786;21.594;2023-11-21T03:55:41;28.00;;;15.00;;
50695;SDS011;36665;51.786;21.594;2023-11-21T04:04:06;23.30;;;12.90;;
50695;SDS011;36665;51.786;21.594;2023-11-21T04:12:30;26.80;;;14.20;;
50695;SDS011;36665;51.786;21.594;2023-11-21T04:21:01;26.50;;;13.50;;
50695;SDS011;36665;51.786;21.594;2023-11-21T04:29:29;28.50;;;13.40;;
50695;SDS011;36665;51.786;21.594;2023-11-21T04:37:53;21.10;;;11.10;;
50695;SDS011;36665;51.786;21.594;2023-11-21T04:46:20;24.40;;;13.40;;
50695;SDS011;36665;51.786;21.594;2023-11-21T04:54:47;23.80;;;12.60;;
50695;SDS011;36665;51.786;21.594;2023-11-21T05:03:11;28.80;;;11.50;;
50695;SDS011;36665;51.786;21.594;2023-11-21T05:11:36;27.50;;;12.70;;
50695;SDS011;36665;51.786;21.594;2023-11-21T05:20:03;28.60;;;14.60;;
50695;SDS011;36665;51.786;21.594;2023-11-21T05:28:33;27.10;;;13.00;;
50695;SDS011;36665;51.786;21.594;2023-11-21T05:36:59;29.10;;;13.00;;
50695;SDS011;36665;51.786;21.594;2023-11-21T05:45:24;30.60;;;14.50;;
50695;SDS011;36665;51.786;21.594;2023-11-21T05:53:58;37.30;;;16.70;;
50695;SDS011;36665;51.786;21.594;2023-11-21T06:02:23;24.60;;;13.00;;
50695;SDS011;36665;51.786;21.594;2023-11-21T06:10:48;26.20;;;12.40;;
50695;SDS011;36665;51.786;21.594;2023-11-21T06:19:14;20.90;;;11.00;;
50695;SDS011;36665;51.786;21.594;2023-11-21T06:27:43;23.90;;;11.50;;
50695;SDS011;36665;51.786;21.594;2023-11-21T06:36:23;24.80;;;12.30;;
50695;SDS011;36665;51.786;21.594;2023-11-21T06:44:46;37.30;;;16.60;;
50695;SDS011;36665;51.786;21.594;2023-11-21T06:53:11;36.40;;;16.60;;
50695;SDS011;36665;51.786;21.594;2023-11-21T07:01:37;30.80;;;16.30;;
50695;SDS011;36665;51.786;21.594;2023-11-21T07:10:04;38.30;;;17.00;;
50695;SDS011;36665;51.786;21.594;2023-11-21T07:18:31;26.20;;;13.60;;
50695;SDS011;36665;51.786;21.594;2023-11-21T07:26:55;30.50;;;15.70;;
50695;SDS011;36665;51.786;21.594;2023-11-21T07:35:20;32.60;;;18.00;;
50695;SDS011;36665;51.786;21.594;2023-11-21T07:43:45;24.20;;;12.90;;
50695;SDS011;36665;51.786;21.594;2023-11-21T07:52:11;34.50;;;15.10;;
50695;SDS011;36665;51.786;21.594;2023-11-21T08:00:36;34.00;;;15.50;;
50695;SDS011;36665;51.786;21.594;2023-11-21T08:09:02;26.90;;;12.90;;
50695;SDS011;36665;51.786;21.594;2023-11-21T08:17:32;26.40;;;13.80;;
50695;SDS011;36665;51.786;21.594;2023-11-21T08:25:58;22.50;;;12.00;;
50695;SDS011;36665;51.786;21.594;2023-11-21T08:34:28;29.40;;;14.70;;
50695;SDS011;36665;51.786;21.594;2023-11-21T08:42:55;31.50;;;15.60;;
50695;SDS011;36665;51.786;21.594;2023-11-21T08:51:24;31.30;;;16.50;;
50695;SDS011;36665;51.786;21.594;2023-11-21T08:59:48;29.20;;;14.20;;
50695;SDS011;36665;51.786;21.594;2023-11-21T09:08:21;24.70;;;13.70;;
50695;SDS011;36665;51.786;21.594;2023-11-21T09:16:46;22.70;;;13.20;;
50695;SDS011;36665;51.786;21.594;2023-11-21T09:25:10;30.10;;;14.70;;
50695;SDS011;36665;51.786;21.594;2023-11-21T09:33:42;20.70;;;11.70;;
50695;SDS011;36665;51.786;21.594;2023-11-21T09:42:11;16.30;;;9.20;;
50695;SDS011;36665;51.786;21.594;2023-11-21T09:50:41;18.00;;;10.50;;
50695;SDS011;36665;51.786;21.594;2023-11-21T09:59:12;18.30;;;9.50;;
50695;SDS011;36665;51.786;21.594;2023-11-21T10:07:39;26.70;;;13.20;;
50695;SDS011;36665;51.786;21.594;2023-11-21T10:16:07;21.40;;;11.00;;
50695;SDS011;36665;51.786;21.594;2023-11-21T10:24:37;21.20;;;10.40;;
50695;SDS011;36665;51.786;21.594;2023-11-21T10:33:14;23.80;;;11.40;;
50695;SDS011;36665;51.786;21.594;2023-11-21T10:41:39;15.10;;;9.20;;
50695;SDS011;36665;51.786;21.594;2023-11-21T10:50:05;40.30;;;18.10;;
50695;SDS011;36665;51.786;21.594;2023-11-21T10:58:34;23.50;;;12.90;;
50695;SDS011;36665;51.786;21.594;2023-11-21T11:07:02;18.60;;;9.30;;
50695;SDS011;36665;51.786;21.594;2023-11-21T11:15:30;18.70;;;10.00;;
50695;SDS011;36665;51.786;21.594;2023-11-21T11:41:51;25.90;;;14.20;;
50695;SDS011;36665;51.786;21.594;2023-11-21T11:50:20;24.80;;;11.50;;
50695;SDS011;36665;51.786;21.594;2023-11-21T11:58:49;23.90;;;11.40;;
50695;SDS011;36665;51.786;21.594;2023-11-21T12:07:19;24.10;;;12.50;;
50695;SDS011;36665;51.786;21.594;2023-11-21T12:15:45;27.60;;;13.90;;
50695;SDS011;36665;51.786;21.594;2023-11-21T12:24:10;26.20;;;13.70;;
50695;SDS011;36665;51.786;21.594;2023-11-21T12:32:37;26.50;;;10.80;;
50695;SDS011;36665;51.786;21.594;2023-11-21T12:41:09;26.90;;;14.30;;
50695;SDS011;36665;51.786;21.594;2023-11-21T12:49:34;45.60;;;21.40;;
50695;SDS011;36665;51.786;21.594;2023-11-21T12:58:06;32.40;;;16.80;;
50695;SDS011;36665;51.786;21.594;2023-11-21T13:06:36;30.70;;;14.30;;
50695;SDS011;36665;51.786;21.594;2023-11-21T13:15:05;36.70;;;17.40;;
50695;SDS011;36665;51.786;21.594;2023-11-21T13:23:34;34.90;;;18.50;;
50695;SDS011;36665;51.786;21.594;2023-11-21T13:32:03;44.70;;;24.30;;
50695;SDS011;36665;51.786;21.594;2023-11-21T13:40:30;36.30;;;17.20;;
50695;SDS011;36665;51.786;21.594;2023-11-21T13:49:03;44.40;;;21.30;;
50695;SDS011;36665;51.786;21.594;2023-11-21T13:57:33;42.70;;;19.10;;
50695;SDS011;36665;51.786;21.594;2023-11-21T14:05:59;35.20;;;18.70;;
50695;SDS011;36665;51.786;21.594;2023-11-21T14:14:32;39.10;;;18.20;;
50695;SDS011;36665;51.786;21.594;2023-11-21T14:22:57;30.30;;;17.10;;
50695;SDS011;36665;51.786;21.594;2023-11-21T14:31:26;53.60;;;27.70;;
50695;SDS011;36665;51.786;21.594;2023-11-21T14:39:52;33.40;;;15.40;;
50695;SDS011;36665;51.786;21.594;2023-11-21T14:48:17;31.70;;;16.30;;
50695;SDS011;36665;51.786;21.594;2023-11-21T14:56:52;41.30;;;18.50;;
50695;SDS011;36665;51.786;21.594;2023-11-21T15:05:17;35.80;;;16.20;;
50695;SDS011;36665;51.786;21.594;2023-11-21T15:13:44;30.80;;;15.90;;
50695;SDS011;36665;51.786;21.594;2023-11-21T15:22:12;35.80;;;19.00;;
50695;SDS011;36665;51.786;21.594;2023-11-21T15:30:38;30.30;;;14.60;;
50695;SDS011;36665;51.786;21.594;2023-11-21T15:39:02;32.20;;;14.30;;
50695;SDS011;36665;51.786;21.594;2023-11-21T15:47:28;33.80;;;17.80;;
50695;SDS011;36665;51.786;21.594;2023-11-21T15:55:52;25.70;;;14.70;;
50695;SDS011;36665;51.786;21.594;2023-11-21T16:04:17;25.40;;;12.70;;
50695;SDS011;36665;51.786;21.594;2023-11-21T16:12:45;33.70;;;16.10;;
50695;SDS011;36665;51.786;21.594;2023-11-21T16:21:10;24.50;;;13.60;;
50695;SDS011;36665;51.786;21.594;2023-11-21T16:29:35;24.00;;;12.90;;
50695;SDS011;36665;51.786;21.594;2023-11-21T16:38:01;28.30;;;11.60;;
50695;SDS011;36665;51.786;21.594;2023-11-21T16:46:27;37.80;;;17.10;;
50695;SDS011;36665;51.786;21.594;2023-11-21T16:54:53;25.50;;;12.10;;
50695;SDS011;36665;51.786;21.594;2023-11-21T17:03:17;21.50;;;10.10;;
50695;SDS011;36665;51.786;21.594;2023-11-21T17:11:47;29.90;;;12.70;;
50695;SDS011;36665;51.786;21.594;2023-11-21T17:20:14;25.70;;;12.30;;
50695;SDS011;36665;51.786;21.594;2023-11-21T17:28:39;20.30;;;9.60;;
50695;SDS011;36665;51.786;21.594;2023-11-21T17:37:04;22.40;;;11.50;;
50695;SDS011;36665;51.786;21.594;2023-11-21T17:45:29;21.30;;;10.60;;
50695;SDS011;36665;51.786;21.594;2023-11-21T17:53:56;15.50;;;8.60;;
50695;SDS011;36665;51.786;21.594;2023-11-21T18:02:27;23.10;;;11.40;;
50695;SDS011;36665;51.786;21.594;2023-11-21T18:10:58;18.20;;;8.00;;
50695;SDS011;36665;51.786;21.594;2023-11-21T18:19:23;20.80;;;10.60;;
50695;SDS011;36665;51.786;21.594;2023-11-21T18:27:48;17.90;;;9.10;;
50695;SDS011;36665;51.786;21.594;2023-11-21T18:36:13;21.70;;;10.50;;
50695;SDS011;36665;51.786;21.594;2023-11-21T18:44:36;15.50;;;7.00;;
50695;SDS011;36665;51.786;21.594;2023-11-21T18:53:19;18.60;;;9.20;;
50695;SDS011;36665;51.786;21.594;2023-11-21T19:01:53;14.20;;;7.80;;
50695;SDS011;36665;51.786;21.594;2023-11-21T19:10:26;21.10;;;11.00;;
50695;SDS011;36665;51.786;21.594;2023-11-21T19:18:52;18.20;;;9.80;;
50695;SDS011;36665;51.786;21.594;2023-11-21T19:27:15;12.60;;;6.70;;
50695;SDS011;36665;51.786;21.594;2023-11-21T19:35:40;21.60;;;9.90;;
50695;SDS011;36665;51.786;21.594;2023-11-21T19:44:05;23.40;;;10.80;;
50695;SDS011;36665;51.786;21.594;2023-11-21T19:52:30;16.60;;;7.50;;
50695;SDS011;36665;51.786;21.594;2023-11-21T20:00:56;23.90;;;10.20;;
50695;SDS011;36665;51.786;21.594;2023-11-21T20:09:20;17.40;;;9.20;;
50695;SDS011;36665;51.786;21.594;2023-11-21T20:17:44;18.20;;;9.30;;
50695;SDS011;36665;51.786;21.594;2023-11-21T20:26:10;17.90;;;8.50;;
50695;SDS011;36665;51.786;21.594;2023-11-21T20:34:35;17.50;;;7.40;;
50695;SDS011;36665;51.786;21.594;2023-11-21T20:43:01;20.70;;;8.10;;
50695;SDS011;36665;51.786;21.594;2023-11-21T20:51:26;25.50;;;10.80;;
50695;SDS011;36665;51.786;21.594;2023-11-21T20:59:49;15.00;;;7.20;;
50695;SDS011;36665;51.786;21.594;2023-11-21T21:08:14;16.30;;;6.70;;
50695;SDS011;36665;51.786;21.594;2023-11-21T21:16:39;15.80;;;8.30;;
50695;SDS011;36665;51.786;21.594;2023-11-21T21:25:05;23.80;;;7.60;;
50695;SDS011;36665;51.786;21.594;2023-11-21T21:33:29;24.70;;;11.90;;
50695;SDS011;36665;51.786;21.594;2023-11-21T21:41:54;31.30;;;9.90;;
50695;SDS011;36665;51.786;21.594;2023-11-21T21:50:18;20.70;;;9.90;;
50695;SDS011;36665;51.786;21.594;2023-11-21T21:58:42;21.80;;;9.20;;
50695;SDS011;36665;51.786;21.594;2023-11-21T22:07:07;27.30;;;12.40;;
50695;SDS011;36665;51.786;21.594;2023-11-21T22:15:35;19.90;;;9.00;;
50695;SDS011;36665;51.786;21.594;2023-11-21T22:24:01;19.20;;;7.70;;
50695;SDS011;36665;51.786;21.594;2023-11-21T22:32:28;16.60;;;7.90;;
50695;SDS011;36665;51.786;21.594;2023-11-21T22:40:52;17.90;;;7.30;;
50695;SDS011;36665;51.786;21.594;2023-11-21T22:49:17;13.70;;;7.00;;
50695;SDS011;36665;51.786;21.594;2023-11-21T22:57:41;11.60;;;6.70;;
50695;SDS011;36665;51.786;21.594;2023-11-21T23:06:06;16.20;;;6.10;;
50695;SDS011;36665;51.786;21.594;2023-11-21T23:14:30;14.70;;;7.00;;
50695;SDS011;36665;51.786;21.594;2023-11-21T23:22:56;21.20;;;8.10;;
50695;SDS011;36665;51.786;21.594;2023-11-21T23:31:21;14.90;;;7.00;;
50695;SDS011;36665;51.786;21.594;2023-11-21T23:39:45;19.20;;;8.60;;
50695;SDS011;36665;51.786;21.594;2023-11-21T23:48:11;14.40;;;6.40;;
50695;SDS011;36665;51.786;21.594;2023-11-21T23:56:35;17.10;;;8.20;;
